Time;durP1;ratioP1;P1;durP2;ratioP2;P2;SDS_P1;SDS_P2;PMS_P1;PMS_P2;Temp;Humidity;BMP_temperature;BMP_pressure;BME280_temperature;BME280_humidity;BME280_pressure;Samples;Min_cycle;Max_cycle;Signal;HPM_P1;HPM_P2
2021/04/01 00:00:22;;;;;;;1.85;1.13;;;16.20;99.90;;;;;;4955395;29;20183;-76
2021/04/01 00:02:50;;;;;;;1.15;0.77;;;16.20;99.90;;;;;;4955420;29;20190;-76
2021/04/01 00:05:16;;;;;;;1.05;1.05;;;16.00;99.90;;;;;;4955307;29;20179;-76
2021/04/01 00:07:43;;;;;;;4.45;1.73;;;16.10;99.90;;;;;;4955144;29;20190;-77
2021/04/01 00:10:13;;;;;;;8.15;1.55;;;16.00;99.90;;;;;;4955189;29;20194;-77
2021/04/01 00:12:38;;;;;;;0.88;0.88;;;16.00;99.90;;;;;;4955172;29;20627;-75
2021/04/01 00:15:07;;;;;;;3.13;0.90;;;16.10;99.90;;;;;;4955249;29;20166;-75
2021/04/01 00:17:33;;;;;;;7.20;2.47;;;16.20;99.90;;;;;;4955027;29;20190;-75
2021/04/01 00:19:58;;;;;;;0.40;0.40;;;16.20;99.90;;;;;;4954978;29;20241;-76
2021/04/01 00:22:24;;;;;;;1.67;1.52;;;16.10;99.90;;;;;;4955136;29;20166;-75
2021/04/01 00:24:50;;;;;;;4.10;1.70;;;16.00;99.90;;;;;;4954908;29;20682;-75
2021/04/01 00:27:15;;;;;;;1.73;1.63;;;15.90;99.90;;;;;;4955070;29;20595;-75
2021/04/01 00:29:41;;;;;;;2.58;1.05;;;15.90;99.90;;;;;;4954981;29;20244;-75
2021/04/01 00:32:07;;;;;;;1.70;1.40;;;15.90;99.90;;;;;;4954966;29;20623;-75
2021/04/01 00:34:32;;;;;;;5.70;1.13;;;15.80;99.90;;;;;;4955179;29;20166;-75
2021/04/01 00:36:58;;;;;;;1.38;1.27;;;15.90;99.90;;;;;;4954827;29;20190;-77
2021/04/01 00:39:23;;;;;;;0.77;0.77;;;15.90;99.90;;;;;;4954999;29;20566;-75
2021/04/01 00:41:49;;;;;;;3.88;2.75;;;15.80;99.90;;;;;;4954952;29;20233;-76
2021/04/01 00:44:16;;;;;;;3.45;1.85;;;15.80;99.90;;;;;;4955013;29;20167;-75
2021/04/01 00:46:46;;;;;;;3.60;2.33;;;15.80;99.90;;;;;;4954872;29;20183;-76
2021/04/01 00:49:12;;;;;;;8.00;2.60;;;15.80;99.90;;;;;;4955139;28;20194;-76
2021/04/01 00:51:37;;;;;;;3.00;2.70;;;15.70;99.90;;;;;;4958761;29;20221;-75
2021/04/01 00:54:03;;;;;;;3.45;1.45;;;15.60;99.90;;;;;;4958844;29;20487;-77
2021/04/01 00:56:28;;;;;;;2.45;1.80;;;15.50;99.90;;;;;;4941366;29;20188;-75
2021/04/01 00:58:54;;;;;;;17.02;0.98;;;15.60;99.90;;;;;;4958760;29;20210;-76
2021/04/01 01:01:36;;;;;;;1.17;1.13;;;15.50;99.90;;;;;;4958529;29;20190;-76
2021/04/01 01:04:03;;;;;;;0.85;0.85;;;15.40;99.90;;;;;;4958603;29;20214;-76
2021/04/01 01:06:29;;;;;;;1.95;1.75;;;15.40;99.90;;;;;;4958292;29;20198;-75
2021/04/01 01:08:55;;;;;;;3.17;1.35;;;15.50;99.90;;;;;;4958449;29;20209;-77
2021/04/01 01:11:21;;;;;;;10.68;3.58;;;15.50;99.90;;;;;;4958380;29;20175;-76
2021/04/01 01:13:47;;;;;;;1.60;0.98;;;15.20;99.90;;;;;;4958421;29;20629;-76
2021/04/01 01:16:12;;;;;;;2.42;0.70;;;15.20;99.90;;;;;;4958425;29;20190;-75
2021/04/01 01:18:39;;;;;;;21.60;1.98;;;15.20;99.90;;;;;;4958184;29;20199;-76
2021/04/01 01:21:07;;;;;;;1.02;0.90;;;15.20;99.90;;;;;;4958070;29;20230;-77
2021/04/01 01:23:33;;;;;;;2.53;1.48;;;15.50;99.90;;;;;;4958320;29;20262;-76
2021/04/01 01:26:00;;;;;;;0.90;0.90;;;15.40;99.90;;;;;;4958147;29;20167;-77
2021/04/01 01:28:26;;;;;;;5.07;2.55;;;15.50;99.90;;;;;;4941036;29;20600;-76
2021/04/01 01:30:53;;;;;;;6.15;2.17;;;15.50;99.90;;;;;;4958036;29;20281;-75
2021/04/01 01:33:20;;;;;;;2.00;1.40;;;15.50;99.90;;;;;;4958108;29;20163;-77
2021/04/01 01:35:47;;;;;;;1.27;1.17;;;15.50;99.90;;;;;;4958018;29;20206;-75
2021/04/01 01:38:13;;;;;;;3.58;1.60;;;15.40;99.90;;;;;;4957900;29;20205;-76
2021/04/01 01:40:39;;;;;;;1.33;0.90;;;15.40;99.90;;;;;;4957881;29;20249;-76
2021/04/01 01:43:07;;;;;;;1.90;1.77;;;15.40;99.90;;;;;;4957796;29;20622;-75
2021/04/01 01:45:33;;;;;;;3.45;1.58;;;15.40;99.90;;;;;;4957975;29;20174;-75
2021/04/01 01:48:00;;;;;;;12.68;1.58;;;15.50;99.90;;;;;;4957701;29;20190;-77
2021/04/01 01:50:28;;;;;;;1.88;1.75;;;15.30;99.90;;;;;;4957886;29;20213;-77
2021/04/01 01:52:54;;;;;;;1.65;1.55;;;15.20;99.90;;;;;;4957720;29;20166;-76
2021/04/01 01:55:19;;;;;;;1.75;1.40;;;15.30;99.90;;;;;;4940419;29;20190;-76
2021/04/01 01:57:45;;;;;;;1.65;1.55;;;15.20;99.90;;;;;;4957582;29;20198;-75
2021/04/01 02:00:31;;;;;;;1.73;1.33;;;15.30;99.90;;;;;;4957101;28;20163;-75
2021/04/01 02:02:59;;;;;;;1.95;1.85;;;15.10;99.90;;;;;;4957540;29;20170;-75
2021/04/01 02:05:26;;;;;;;1.30;1.25;;;15.20;99.90;;;;;;4957204;29;20261;-76
2021/04/01 02:07:53;;;;;;;1.30;1.25;;;15.30;99.90;;;;;;4957347;29;20221;-76
2021/04/01 02:10:21;;;;;;;21.95;3.55;;;15.30;99.90;;;;;;4957306;29;20337;-77
2021/04/01 02:12:46;;;;;;;2.00;1.80;;;15.30;99.90;;;;;;4957280;29;20225;-76
2021/04/01 02:15:18;;;;;;;5.93;2.60;;;15.40;99.90;;;;;;4957326;29;20253;-75
2021/04/01 02:17:43;;;;;;;0.98;0.95;;;15.30;99.90;;;;;;4939972;29;20192;-75
2021/04/01 02:20:10;;;;;;;11.80;2.47;;;15.00;99.90;;;;;;4956988;29;20222;-77
2021/04/01 02:22:37;;;;;;;2.25;2.05;;;15.00;99.90;;;;;;4957171;29;20580;-75
2021/04/01 02:25:04;;;;;;;1.27;1.17;;;15.00;99.90;;;;;;4957352;29;20165;-76
2021/04/01 02:27:30;;;;;;;6.03;1.92;;;15.10;99.90;;;;;;4956979;29;20191;-77
2021/04/01 02:29:56;;;;;;;2.20;1.13;;;15.20;99.90;;;;;;4957090;29;20210;-75
2021/04/01 02:32:22;;;;;;;2.13;1.45;;;15.10;99.90;;;;;;4957060;29;20634;-75
2021/04/01 02:34:48;;;;;;;1.67;1.58;;;15.10;99.90;;;;;;4956925;29;20539;-76
2021/04/01 02:37:15;;;;;;;2.72;1.33;;;15.00;99.90;;;;;;4956919;29;20186;-75
2021/04/01 02:39:40;;;;;;;5.47;2.63;;;15.00;99.90;;;;;;4956840;29;20654;-76
2021/04/01 02:42:06;;;;;;;27.67;1.15;;;15.00;99.90;;;;;;4956760;29;20171;-75
2021/04/01 02:44:32;;;;;;;1.08;0.88;;;14.80;99.90;;;;;;4956721;29;20174;-74
2021/04/01 02:46:58;;;;;;;1.40;1.35;;;14.90;99.90;;;;;;4956610;29;20526;-76
2021/04/01 02:49:23;;;;;;;1.65;1.38;;;14.80;99.90;;;;;;4956662;29;20214;-75
2021/04/01 02:51:49;;;;;;;1.27;1.13;;;14.80;99.90;;;;;;4939385;29;20197;-77
2021/04/01 02:54:14;;;;;;;6.40;2.30;;;14.80;99.90;;;;;;4956592;29;20167;-75
2021/04/01 02:56:40;;;;;;;6.47;2.50;;;14.70;99.90;;;;;;4956518;29;20261;-75
2021/04/01 02:59:05;;;;;;;1.77;1.33;;;14.80;99.90;;;;;;4956523;29;20233;-76
2021/04/01 03:01:31;;;;;;;1.33;1.23;;;14.80;99.90;;;;;;4956377;29;20163;-75
2021/04/01 03:03:58;;;;;;;9.43;1.95;;;14.80;99.90;;;;;;4956513;29;20198;-76
2021/04/01 03:06:24;;;;;;;1.95;1.52;;;14.60;99.90;;;;;;4956217;29;20622;-76
2021/04/01 03:08:50;;;;;;;2.38;2.20;;;14.60;99.90;;;;;;4939021;29;20210;-74
2021/04/01 03:11:15;;;;;;;4.68;2.10;;;14.60;99.90;;;;;;4956197;28;20247;-75
2021/04/01 03:13:41;;;;;;;5.80;1.83;;;14.60;99.90;;;;;;4955552;29;20173;-75
2021/04/01 03:16:06;;;;;;;2.33;1.92;;;14.60;99.90;;;;;;4956216;29;20242;-75
2021/04/01 03:18:32;;;;;;;1.33;1.05;;;14.60;99.90;;;;;;4956098;29;20190;-75
2021/04/01 03:20:58;;;;;;;2.78;1.67;;;14.50;99.90;;;;;;4955904;29;20230;-77
2021/04/01 03:23:25;;;;;;;1.55;1.25;;;14.40;99.90;;;;;;4956019;29;20723;-77
2021/04/01 03:25:51;;;;;;;2.38;1.95;;;14.40;99.90;;;;;;4955976;29;20167;-76
2021/04/01 03:28:16;;;;;;;1.60;1.50;;;14.40;99.90;;;;;;4938662;29;20242;-76
2021/04/01 03:30:48;;;;;;;1.17;1.13;;;14.30;99.90;;;;;;4955733;29;20209;-75
2021/04/01 03:33:14;;;;;;;3.30;1.60;;;14.30;99.90;;;;;;4955761;29;20166;-75
2021/04/01 03:35:39;;;;;;;3.38;2.28;;;14.30;99.90;;;;;;4955756;29;20590;-76
2021/04/01 03:38:06;;;;;;;2.10;1.52;;;14.50;99.90;;;;;;4955596;29;20190;-77
2021/04/01 03:40:32;;;;;;;3.28;1.50;;;14.40;99.90;;;;;;4955754;29;20146;-77
2021/04/01 03:42:57;;;;;;;2.03;1.88;;;14.50;99.90;;;;;;4955770;29;20170;-76
2021/04/01 03:45:23;;;;;;;2.03;1.80;;;14.40;99.90;;;;;;4955666;29;20294;-76
2021/04/01 03:47:49;;;;;;;10.18;2.22;;;14.50;99.90;;;;;;4938164;29;20280;-76
2021/04/01 03:50:15;;;;;;;26.02;2.28;;;14.40;99.90;;;;;;4955747;29;20301;-76
2021/04/01 03:52:41;;;;;;;2.63;2.15;;;14.40;99.90;;;;;;4955514;29;20166;-77
2021/04/01 03:57:42;;;;;;;3.85;1.83;;;14.50;99.90;;;;;;4955555;29;20205;-75
2021/04/01 04:02:53;;;;;;;12.48;1.95;;;14.50;99.90;;;;;;4955429;29;20183;-75
2021/04/01 04:13:22;;;;;;;1.30;1.25;;;14.30;99.90;;;;;;4955071;29;20177;-76
2021/04/01 04:15:48;;;;;;;1.52;1.42;;;14.20;99.90;;;;;;4955020;29;20163;-76
2021/04/01 04:18:14;;;;;;;5.55;1.80;;;14.30;99.90;;;;;;4955156;29;20273;-75
2021/04/01 04:20:40;;;;;;;11.80;2.20;;;14.30;99.90;;;;;;4954720;29;20250;-76
2021/04/01 04:23:06;;;;;;;3.85;2.15;;;14.20;99.90;;;;;;4954938;29;20179;-75
2021/04/01 04:25:34;;;;;;;4.15;2.05;;;14.30;99.90;;;;;;4955086;29;20166;-75
2021/04/01 04:28:09;;;;;;;2.05;1.90;;;14.30;99.90;;;;;;4955307;29;20187;-75
2021/04/01 04:30:35;;;;;;;2.15;1.38;;;14.20;99.90;;;;;;4954885;29;20194;-76
2021/04/01 04:33:01;;;;;;;1.92;1.73;;;14.20;99.90;;;;;;4954820;29;20524;-76
2021/04/01 04:35:27;;;;;;;2.60;2.05;;;14.20;99.90;;;;;;4954701;29;20185;-75
2021/04/01 04:37:53;;;;;;;2.03;1.67;;;14.20;99.90;;;;;;4954804;29;20186;-75
2021/04/01 04:40:18;;;;;;;1.67;1.58;;;14.30;99.90;;;;;;4954953;29;20611;-76
2021/04/01 04:42:44;;;;;;;1.55;1.45;;;14.40;99.90;;;;;;4954794;29;20190;-77
2021/04/01 04:45:10;;;;;;;2.72;1.48;;;14.50;99.90;;;;;;4954680;29;20524;-76
2021/04/01 04:47:36;;;;;;;1.65;1.55;;;14.50;99.90;;;;;;4954698;29;20221;-75
2021/04/01 04:50:04;;;;;;;2.85;2.08;;;14.50;99.90;;;;;;4954935;29;20214;-76
2021/04/01 04:52:31;;;;;;;2.00;1.65;;;14.60;99.90;;;;;;4954643;29;20167;-75
2021/04/01 04:54:57;;;;;;;2.67;1.30;;;14.50;99.90;;;;;;4954820;29;20619;-76
2021/04/01 04:57:40;;;;;;;5.90;2.28;;;14.40;99.90;;;;;;4954942;29;20201;-76
2021/04/01 05:05:35;;;;;;;1.67;1.05;;;14.40;99.90;;;;;;4954493;29;20182;-74
2021/04/01 05:08:01;;;;;;;2.60;2.42;;;14.30;99.90;;;;;;4954575;28;20187;-76
2021/04/01 05:10:26;;;;;;;3.75;2.13;;;14.40;99.90;;;;;;4954441;29;20202;-75
2021/04/01 05:13:07;;;;;;;10.75;1.83;;;14.30;99.90;;;;;;4937200;29;20615;-76
2021/04/01 05:15:34;;;;;;;1.77;1.33;;;14.30;99.90;;;;;;4937034;29;20170;-75
2021/04/01 05:21:02;;;;;;;3.85;2.50;;;14.20;99.90;;;;;;4879195;29;20229;-74
2021/04/01 05:23:32;;;;;;;1.48;1.30;;;14.20;99.90;;;;;;4923738;29;20187;-75
2021/04/01 05:28:40;;;;;;;7.65;2.08;;;14.30;99.90;;;;;;4934935;29;20409;-77
2021/04/01 05:31:08;;;;;;;15.10;2.95;;;14.30;99.90;;;;;;4918020;29;20186;-75
2021/04/01 05:33:36;;;;;;;3.75;2.40;;;14.30;99.90;;;;;;4935238;29;20156;-76
2021/04/01 05:36:05;;;;;;;14.15;3.50;;;14.30;99.90;;;;;;4919581;29;20632;-75
2021/04/01 05:38:32;;;;;;;2.60;1.85;;;14.30;99.90;;;;;;4938441;29;20187;-75
2021/04/01 05:40:58;;;;;;;6.65;1.50;;;14.30;99.90;;;;;;4938462;29;20175;-76
2021/04/01 05:43:26;;;;;;;2.25;1.92;;;14.40;99.90;;;;;;4921166;29;20608;-76
2021/04/01 05:46:02;;;;;;;5.35;3.50;;;14.30;99.90;;;;;;4938523;29;20624;-75
2021/04/01 05:48:41;;;;;;;2.55;2.33;;;14.40;99.90;;;;;;4938257;29;20187;-76
2021/04/01 05:56:51;;;;;;;8.38;3.72;;;14.40;99.90;;;;;;4937884;29;20271;-75
2021/04/01 05:59:45;;;;;;;2.20;2.10;;;14.50;99.90;;;;;;4939645;29;20190;-75
2021/04/01 06:04:47;;;;;;;2.10;2.00;;;14.60;99.90;;;;;;4940300;29;20175;-76
2021/04/01 06:07:28;;;;;;;11.23;2.17;;;14.60;99.90;;;;;;4930252;29;20689;-77
2021/04/01 06:09:58;;;;;;;14.85;2.92;;;14.60;99.90;;;;;;4956925;29;20229;-77
2021/04/01 06:12:31;;;;;;;2.15;1.70;;;14.50;99.90;;;;;;4939885;29;20171;-77
2021/04/01 06:15:06;;;;;;;3.72;2.22;;;14.70;99.90;;;;;;4950504;29;20214;-78
2021/04/01 06:17:32;;;;;;;2.08;1.58;;;14.80;99.90;;;;;;4945242;29;20194;-78
2021/04/01 06:20:09;;;;;;;4.00;2.45;;;15.00;99.90;;;;;;4956891;28;20214;-77
2021/04/01 06:22:39;;;;;;;6.00;3.55;;;15.00;99.90;;;;;;4944435;29;20183;-78
2021/04/01 06:25:10;;;;;;;27.98;3.53;;;14.90;99.90;;;;;;4937652;29;20171;-77
2021/04/01 06:27:40;;;;;;;28.15;3.88;;;14.60;99.90;;;;;;4937291;29;20191;-78
2021/04/01 06:32:40;;;;;;;10.77;3.97;;;15.00;99.90;;;;;;4956778;29;20182;-77
2021/04/01 06:35:31;;;;;;;3.47;3.28;;;15.10;99.90;;;;;;4934035;29;20555;-78
2021/04/01 06:40:40;;;;;;;2.63;2.42;;;15.50;99.90;;;;;;4937774;29;20191;-79
2021/04/01 06:43:19;;;;;;;3.30;3.00;;;15.70;99.90;;;;;;4919725;29;20180;-78
2021/04/01 06:45:56;;;;;;;4.13;3.47;;;15.80;99.90;;;;;;4920281;29;20179;-77
2021/04/01 06:48:27;;;;;;;6.93;3.00;;;15.80;99.90;;;;;;4936071;29;20261;-77
2021/04/01 06:51:11;;;;;;;2.33;2.00;;;15.70;99.90;;;;;;4937507;29;20217;-77
2021/04/01 06:54:02;;;;;;;1.95;1.80;;;15.80;99.90;;;;;;4919784;29;20262;-77
2021/04/01 06:56:38;;;;;;;4.88;3.50;;;15.80;99.90;;;;;;4934496;29;20333;-77
2021/04/01 06:59:18;;;;;;;4.63;3.53;;;16.00;99.90;;;;;;4923563;29;20183;-76
2021/04/01 07:02:01;;;;;;;3.25;2.45;;;16.30;99.90;;;;;;4916147;29;20182;-77
2021/04/01 07:04:34;;;;;;;3.38;1.88;;;16.40;99.90;;;;;;4936838;29;20190;-76
2021/04/01 07:07:05;;;;;;;5.75;4.35;;;16.70;99.90;;;;;;4937186;29;20278;-77
2021/04/01 07:12:20;;;;;;;6.57;3.83;;;16.60;99.90;;;;;;4936568;29;20213;-79
2021/04/01 07:14:49;;;;;;;7.47;2.78;;;16.70;99.90;;;;;;4936650;29;20163;-77
2021/04/01 07:17:29;;;;;;;3.42;2.35;;;16.70;99.90;;;;;;4936190;29;20283;-76
2021/04/01 07:44:48;;;;;;;17.17;5.35;;;18.00;99.90;;;;;;4967156;28;20188;-76
2021/04/01 07:47:21;;;;;;;4.18;3.25;;;18.00;99.90;;;;;;4974385;28;20264;-77
2021/04/01 07:49:51;;;;;;;11.57;5.80;;;18.10;99.90;;;;;;4951050;28;20682;-77
2021/04/01 07:52:26;;;;;;;23.08;5.43;;;18.30;99.90;;;;;;4937638;29;20273;-77
2021/04/01 07:55:02;;;;;;;3.95;2.53;;;18.50;99.90;;;;;;4955112;29;20162;-78
2021/04/01 07:58:05;;;;;;;4.55;3.42;;;18.70;99.90;;;;;;4960379;28;20224;-77
2021/04/01 08:00:59;;;;;;;5.75;3.97;;;19.00;99.90;;;;;;4968490;28;20637;-78
2021/04/01 08:06:04;;;;;;;4.88;4.35;;;19.40;99.90;;;;;;4954224;28;20535;-79
2021/04/01 08:08:35;;;;;;;12.93;5.00;;;19.30;99.90;;;;;;4973014;28;20296;-79
2021/04/01 08:11:03;;;;;;;11.80;5.90;;;19.30;99.90;;;;;;4972948;28;20255;-79
2021/04/01 08:13:32;;;;;;;12.30;5.60;;;19.40;99.60;;;;;;4956027;28;20198;-78
2021/04/01 08:16:04;;;;;;;15.25;5.60;;;19.50;99.20;;;;;;4945273;29;20277;-78
2021/04/01 08:18:35;;;;;;;8.73;5.10;;;19.70;99.40;;;;;;4953849;29;20187;-84
2021/04/01 08:21:04;;;;;;;14.77;6.07;;;19.60;99.00;;;;;;4954340;28;20255;-77
2021/04/01 08:23:40;;;;;;;9.50;3.97;;;19.60;99.30;;;;;;4958458;28;20858;-79
2021/04/01 08:34:10;;;;;;;9.77;4.40;;;19.70;98.30;;;;;;4968748;28;20240;-79
2021/04/01 08:36:42;;;;;;;14.45;6.70;;;20.10;97.50;;;;;;4972700;28;20170;-78
2021/04/01 08:39:09;;;;;;;8.27;4.72;;;20.00;96.10;;;;;;4972699;28;20225;-78
2021/04/01 08:41:35;;;;;;;4.47;3.90;;;19.80;96.60;;;;;;4972444;28;20181;-80
2021/04/01 08:44:40;;;;;;;21.90;5.38;;;19.80;96.30;;;;;;4972546;28;20513;-79
2021/04/01 08:47:11;;;;;;;7.43;5.35;;;20.00;95.50;;;;;;4969034;28;20216;-79
2021/04/01 08:49:47;;;;;;;17.23;4.35;;;19.40;95.50;;;;;;4972479;28;20217;-78
2021/04/01 08:52:27;;;;;;;25.52;4.88;;;19.20;96.00;;;;;;4972603;28;20205;-78
2021/04/01 08:55:05;;;;;;;22.83;5.97;;;18.90;96.10;;;;;;4972120;28;20177;-77
2021/04/01 08:57:45;;;;;;;20.60;7.65;;;18.80;96.80;;;;;;4964331;28;20201;-80
2021/04/01 09:00:14;;;;;;;8.73;4.00;;;18.70;97.70;;;;;;4952037;28;20174;-77
2021/04/01 09:02:47;;;;;;;6.63;4.55;;;18.80;98.20;;;;;;4955634;28;20212;-81
2021/04/01 09:05:13;;;;;;;9.90;4.18;;;18.80;98.90;;;;;;4936374;29;20672;-80
2021/04/01 09:07:47;;;;;;;6.78;3.95;;;19.00;99.10;;;;;;4959232;28;20193;-78
2021/04/01 09:10:17;;;;;;;12.27;5.57;;;19.00;98.90;;;;;;4964371;28;20240;-79
2021/04/01 09:12:52;;;;;;;6.20;4.47;;;19.20;99.10;;;;;;4960038;28;20649;-81
2021/04/01 09:15:44;;;;;;;30.73;6.68;;;19.40;99.40;;;;;;4967436;28;20261;-78
2021/04/01 09:18:05;;;;;;;7.05;3.13;;;19.50;99.30;;;;;;4956917;29;20285;-80
2021/04/01 09:20:31;;;;;;;11.18;4.10;;;19.30;99.50;;;;;;4940425;29;20234;-81
2021/04/01 09:23:05;;;;;;;10.85;5.68;;;19.30;99.60;;;;;;4958157;29;20178;-81
2021/04/01 09:25:44;;;;;;;9.93;5.50;;;19.40;99.80;;;;;;4939876;29;20249;-81
2021/04/01 09:28:11;;;;;;;11.13;3.20;;;19.30;99.90;;;;;;4957047;29;20182;-81
2021/04/01 09:30:38;;;;;;;9.98;5.35;;;19.40;99.90;;;;;;4957759;29;20697;-82
2021/04/01 09:33:25;;;;;;;5.93;4.63;;;19.40;99.90;;;;;;4957578;29;20177;-79
2021/04/01 09:35:51;;;;;;;16.08;4.50;;;19.60;99.90;;;;;;4957417;29;20169;-79
2021/04/01 09:38:18;;;;;;;7.82;5.35;;;19.70;99.70;;;;;;4957679;29;20187;-81
2021/04/01 09:40:45;;;;;;;8.93;2.90;;;20.00;99.10;;;;;;4957678;29;20182;-80
2021/04/01 09:43:17;;;;;;;7.40;4.82;;;20.10;98.90;;;;;;4957557;29;20167;-79
2021/04/01 09:45:44;;;;;;;13.63;5.50;;;20.00;99.00;;;;;;4957392;29;20230;-78
2021/04/01 09:48:11;;;;;;;9.02;5.38;;;19.80;99.60;;;;;;4957224;29;20190;-79
2021/04/01 09:50:45;;;;;;;4.50;2.92;;;19.90;99.90;;;;;;4949822;29;20218;-79
2021/04/01 09:53:19;;;;;;;5.95;4.07;;;20.00;99.60;;;;;;4957484;29;20167;-77
2021/04/01 09:55:47;;;;;;;11.98;4.63;;;19.80;99.80;;;;;;4957392;29;20228;-81
2021/04/01 09:58:36;;;;;;;4.68;3.28;;;20.00;99.70;;;;;;4939943;29;20190;-81
2021/04/01 10:03:52;;;;;;;19.30;4.40;;;20.10;99.90;;;;;;4959933;28;20177;-80
2021/04/01 10:06:46;;;;;;;2.15;1.95;;;20.30;99.60;;;;;;4958650;28;20725;-81
2021/04/01 10:09:14;;;;;;;5.70;2.78;;;20.60;98.80;;;;;;4954486;29;20551;-81
2021/04/01 10:12:00;;;;;;;22.55;5.72;;;20.60;98.90;;;;;;4940225;29;20220;-79
2021/04/01 10:14:32;;;;;;;7.57;3.60;;;20.50;98.10;;;;;;4940139;29;20159;-79
2021/04/01 10:17:11;;;;;;;7.07;4.43;;;20.70;97.50;;;;;;4957166;29;20229;-82
2021/04/01 10:19:42;;;;;;;11.65;2.58;;;20.60;97.60;;;;;;4939922;29;20226;-81
2021/04/01 10:22:27;;;;;;;8.85;5.32;;;20.60;98.00;;;;;;4957359;28;20167;-83
2021/04/01 10:25:25;;;;;;;13.98;5.13;;;20.70;98.00;;;;;;4940320;29;20179;-85
2021/04/01 10:27:56;;;;;;;4.00;3.47;;;21.00;98.30;;;;;;4960771;28;20198;-82
2021/04/01 10:30:27;;;;;;;10.85;5.20;;;21.00;98.10;;;;;;4949353;29;20206;-82
2021/04/01 10:33:07;;;;;;;9.20;3.50;;;20.90;97.50;;;;;;4973108;28;20186;-80
2021/04/01 10:35:38;;;;;;;10.20;5.90;;;20.80;97.70;;;;;;4962126;28;20542;-81
2021/04/01 10:38:05;;;;;;;10.85;3.78;;;20.90;97.20;;;;;;4956912;28;20201;-80
2021/04/01 10:40:32;;;;;;;14.55;5.88;;;21.10;97.10;;;;;;4964435;28;20173;-80
2021/04/01 10:43:09;;;;;;;7.65;4.40;;;21.10;97.10;;;;;;4963983;28;20211;-80
2021/04/01 10:45:43;;;;;;;3.85;2.58;;;21.20;97.30;;;;;;4947095;28;20633;-80
2021/04/01 10:48:23;;;;;;;5.60;3.90;;;21.10;97.10;;;;;;4957752;28;20189;-81
2021/04/01 10:50:51;;;;;;;12.70;5.30;;;21.10;96.90;;;;;;4959829;28;20210;-79
2021/04/01 10:53:18;;;;;;;7.35;3.97;;;21.10;98.10;;;;;;4959383;28;20178;-79
2021/04/01 10:55:44;;;;;;;10.10;4.50;;;21.20;97.40;;;;;;4957940;28;20181;-76
2021/04/01 10:58:11;;;;;;;6.38;5.70;;;21.30;96.90;;;;;;4975759;28;20182;-80
2021/04/01 11:00:38;;;;;;;6.32;3.75;;;21.40;96.40;;;;;;4973810;28;20158;-80
2021/04/01 11:03:06;;;;;;;7.40;3.92;;;21.10;96.60;;;;;;4937888;29;20186;-80
2021/04/01 11:05:35;;;;;;;7.75;3.38;;;21.30;96.50;;;;;;4956206;29;20169;-79
2021/04/01 11:08:09;;;;;;;8.88;4.35;;;21.40;96.90;;;;;;4955423;29;20197;-79
2021/04/01 11:10:35;;;;;;;14.13;4.15;;;21.50;97.30;;;;;;4955976;29;20198;-81
2021/04/01 11:13:06;;;;;;;4.43;2.92;;;21.30;98.00;;;;;;4955657;29;20587;-79
2021/04/01 11:15:41;;;;;;;3.55;2.42;;;21.20;98.60;;;;;;4952081;28;20577;-79
2021/04/01 11:18:19;;;;;;;15.82;4.28;;;21.30;98.40;;;;;;4975118;28;20189;-79
2021/04/01 11:20:48;;;;;;;3.60;3.20;;;21.60;98.30;;;;;;4974998;28;20218;-81
2021/04/01 11:23:22;;;;;;;2.05;1.90;;;21.40;97.80;;;;;;4957781;28;20300;-83
2021/04/01 11:25:54;;;;;;;2.72;1.63;;;21.60;97.90;;;;;;4957458;28;20181;-81
2021/04/01 11:28:32;;;;;;;13.85;3.05;;;21.70;98.00;;;;;;4958296;28;20190;-83
2021/04/01 11:30:58;;;;;;;15.95;3.78;;;21.60;97.80;;;;;;4974891;28;20201;-81
2021/04/01 11:33:25;;;;;;;6.80;4.50;;;21.40;98.20;;;;;;4957213;28;20170;-84
2021/04/01 11:38:41;;;;;;;5.15;4.05;;;21.40;99.00;;;;;;4976025;28;20229;-85
2021/04/01 11:41:09;;;;;;;3.75;3.45;;;21.50;99.20;;;;;;4942612;29;20174;-83
2021/04/01 11:43:36;;;;;;;5.20;3.50;;;21.60;98.70;;;;;;4938499;29;20221;-81
2021/04/01 11:46:13;;;;;;;5.45;3.45;;;21.60;98.00;;;;;;4954818;28;20170;-82
2021/04/01 11:48:39;;;;;;;11.07;6.00;;;21.70;98.20;;;;;;4937724;29;20262;-82
2021/04/01 11:51:07;;;;;;;5.85;4.03;;;21.60;98.90;;;;;;4955783;29;20249;-78
2021/04/01 11:53:34;;;;;;;4.00;2.70;;;21.30;99.10;;;;;;4954552;29;20167;-79
2021/04/01 11:56:00;;;;;;;3.58;3.28;;;21.20;99.60;;;;;;4955277;29;20167;-79
2021/04/01 11:58:32;;;;;;;12.48;5.55;;;21.40;99.80;;;;;;4954499;29;20218;-76
2021/04/01 12:01:07;;;;;;;4.50;2.42;;;21.50;99.90;;;;;;4955226;29;20532;-79
2021/04/01 12:06:18;;;;;;;15.50;3.17;;;21.60;99.60;;;;;;4954972;29;20181;-78
2021/04/01 12:08:44;;;;;;;4.32;3.15;;;21.50;99.90;;;;;;4954940;29;20186;-78
2021/04/01 12:11:10;;;;;;;2.50;1.73;;;21.50;99.70;;;;;;4954813;29;20212;-78
2021/04/01 12:13:36;;;;;;;12.88;5.85;;;21.40;99.80;;;;;;4954798;29;20179;-79
2021/04/01 12:16:01;;;;;;;3.75;3.35;;;21.40;99.90;;;;;;4954610;29;20178;-78
2021/04/01 12:18:39;;;;;;;17.33;4.65;;;21.50;99.70;;;;;;4954756;29;20210;-78
2021/04/01 12:21:07;;;;;;;27.25;4.95;;;21.50;99.90;;;;;;4920564;29;20227;-78
2021/04/01 12:23:51;;;;;;;9.35;5.85;;;21.60;99.90;;;;;;4935811;29;20504;-78
2021/04/01 12:26:17;;;;;;;21.88;4.93;;;21.60;99.70;;;;;;4935735;29;20175;-78
2021/04/01 12:28:43;;;;;;;17.48;4.68;;;21.40;99.90;;;;;;4935378;29;20218;-78
2021/04/01 12:31:18;;;;;;;8.32;3.28;;;21.30;99.90;;;;;;4935498;29;20281;-78
2021/04/01 12:33:51;;;;;;;5.78;4.32;;;21.20;99.90;;;;;;4935434;29;20548;-77
2021/04/01 12:36:27;;;;;;;11.13;5.15;;;21.10;99.90;;;;;;4935598;29;20519;-78
2021/04/01 12:38:53;;;;;;;6.57;4.80;;;20.90;99.90;;;;;;4935099;29;20522;-79
2021/04/01 12:41:26;;;;;;;16.90;6.07;;;20.80;99.90;;;;;;4934977;29;20163;-79
2021/04/01 12:43:52;;;;;;;3.17;2.90;;;21.00;99.90;;;;;;4917999;29;20659;-78
2021/04/01 12:46:18;;;;;;;8.70;6.22;;;21.10;99.60;;;;;;4939102;29;20167;-78
2021/04/01 12:48:51;;;;;;;15.32;5.03;;;21.10;99.30;;;;;;4921854;29;20245;-78
2021/04/01 12:51:23;;;;;;;11.57;5.60;;;21.30;99.20;;;;;;4939312;29;20670;-78
2021/04/01 12:54:02;;;;;;;16.85;4.95;;;21.30;99.00;;;;;;4922092;29;20186;-78
2021/04/01 12:56:32;;;;;;;7.40;3.47;;;21.30;97.90;;;;;;4931994;29;20250;-77
2021/04/01 12:59:05;;;;;;;6.18;4.65;;;21.30;97.60;;;;;;4938865;29;20259;-77
2021/04/01 13:01:48;;;;;;;13.70;5.40;;;21.30;98.00;;;;;;4921610;29;20174;-80
2021/04/01 13:04:16;;;;;;;13.15;5.70;;;21.10;97.40;;;;;;4938789;29;20155;-79
2021/04/01 13:11:42;;;;;;;12.02;5.63;;;20.90;98.00;;;;;;4950040;29;20186;-80
2021/04/01 13:14:08;;;;;;;22.77;5.22;;;21.00;97.90;;;;;;4939710;29;20194;-80
2021/04/01 13:16:34;;;;;;;11.10;5.22;;;21.00;98.10;;;;;;4946208;29;20182;-80
2021/04/01 13:18:59;;;;;;;6.53;3.40;;;21.10;97.90;;;;;;4957999;29;20619;-81
2021/04/01 13:26:36;;;;;;;9.02;3.92;;;21.00;98.40;;;;;;4969622;28;20189;-81
2021/04/01 13:29:06;;;;;;;25.30;7.10;;;20.90;98.30;;;;;;4957688;29;20174;-81
2021/04/01 13:31:40;;;;;;;18.05;6.43;;;21.00;97.90;;;;;;4957878;29;20530;-80
2021/04/01 13:34:26;;;;;;;8.32;3.72;;;20.80;97.60;;;;;;4946844;28;20177;-81
2021/04/01 13:37:15;;;;;;;10.20;4.75;;;20.60;98.00;;;;;;4975739;28;20194;-81
2021/04/01 13:39:46;;;;;;;17.52;4.10;;;20.60;97.70;;;;;;4977201;28;20177;-81
2021/04/01 13:47:10;;;;;;;14.18;6.28;;;20.50;98.10;;;;;;4959812;28;20225;-81
2021/04/01 13:49:37;;;;;;;12.40;5.57;;;20.50;98.20;;;;;;4939938;29;20724;-81
2021/04/01 13:52:40;;;;;;;14.50;4.68;;;20.60;98.90;;;;;;4957326;29;20185;-80
2021/04/01 13:55:09;;;;;;;39.88;5.20;;;20.60;98.60;;;;;;4953993;29;20179;-80
2021/04/01 14:11:29;;;;;;;3.00;2.47;;;20.20;99.40;;;;;;4897862;29;20192;-79
2021/04/01 14:13:55;;;;;;;1.95;1.70;;;20.20;99.20;;;;;;4897888;29;20179;-80
2021/04/01 14:16:22;;;;;;;30.77;2.38;;;20.20;99.00;;;;;;4925075;29;20182;-80
2021/04/01 14:18:49;;;;;;;2.05;1.23;;;20.10;98.40;;;;;;4939157;29;20357;-79
2021/04/01 14:21:18;;;;;;;4.72;2.40;;;20.00;98.20;;;;;;4939254;29;20245;-79
2021/04/01 14:23:45;;;;;;;3.13;2.42;;;19.80;97.70;;;;;;4956833;29;20221;-80
2021/04/01 14:28:52;;;;;;;2.33;1.65;;;19.60;97.50;;;;;;4956598;29;20259;-80
2021/04/01 14:31:18;;;;;;;2.33;1.38;;;19.50;98.00;;;;;;4956687;29;20669;-80
2021/04/01 14:33:45;;;;;;;6.88;1.33;;;19.40;98.10;;;;;;4958579;28;20247;-80
2021/04/01 14:36:16;;;;;;;5.45;1.98;;;19.50;97.80;;;;;;4940096;28;20265;-81
2021/04/01 14:38:43;;;;;;;16.45;3.15;;;19.60;97.00;;;;;;4941979;29;20190;-80
2021/04/01 14:46:25;;;;;;;4.65;1.85;;;19.30;97.20;;;;;;4956731;29;20205;-77
2021/04/01 14:48:51;;;;;;;12.77;1.13;;;19.30;97.00;;;;;;4956141;28;20634;-78
2021/04/01 14:51:17;;;;;;;2.70;1.77;;;19.30;96.80;;;;;;4938976;29;20218;-78
2021/04/01 14:53:49;;;;;;;1.00;1.00;;;19.30;96.90;;;;;;4955801;29;20167;-77
2021/04/01 14:56:17;;;;;;;11.70;1.50;;;19.20;97.60;;;;;;4954770;28;20661;-76
2021/04/01 14:58:47;;;;;;;4.57;1.55;;;19.20;97.80;;;;;;4955499;29;20265;-75